createdAt,value
2018-12-06T08:32:11.797Z,1007.81
2018-12-06T08:33:11.775Z,1007.85
2018-12-06T08:34:11.774Z,1007.81
2018-12-06T08:35:11.756Z,1007.80
2018-12-06T08:36:11.744Z,1007.83
2018-12-06T08:37:11.730Z,1007.84
2018-12-06T08:38:12.376Z,1007.83
2018-12-06T08:39:11.719Z,1007.89
2018-12-06T08:40:11.696Z,1007.86
2018-12-06T08:41:11.685Z,1007.89
2018-12-06T08:42:11.678Z,1007.88
2018-12-06T08:43:11.673Z,1007.91
2018-12-06T08:44:11.680Z,1007.92
2018-12-06T08:45:11.659Z,1007.95
2018-12-06T08:46:11.636Z,1008.03
2018-12-06T08:47:11.618Z,1008.00
2018-12-06T08:48:11.635Z,1007.97
2018-12-06T08:49:11.612Z,1007.96
2018-12-06T08:50:11.612Z,1008.01
2018-12-06T08:51:11.572Z,1008.01
2018-12-06T08:52:11.560Z,1008.05
2018-12-06T08:53:11.579Z,1008.00
2018-12-06T08:54:11.628Z,1007.99
2018-12-06T08:55:11.549Z,1007.99
2018-12-06T08:56:11.541Z,1007.94
2018-12-06T08:57:11.542Z,1007.96
2018-12-06T08:58:11.493Z,1007.88
2018-12-06T08:59:11.497Z,1007.94
2018-12-06T09:00:11.479Z,1007.93
2018-12-06T09:01:11.466Z,1007.94
2018-12-06T09:02:11.450Z,1007.95
2018-12-06T09:03:11.443Z,1007.98
2018-12-06T09:04:11.440Z,1007.98
2018-12-06T09:05:11.439Z,1007.98
2018-12-06T09:06:11.405Z,1007.99
2018-12-06T09:07:11.392Z,1008.00
2018-12-06T09:08:11.384Z,1008.01
2018-12-06T09:09:11.381Z,1008.09
2018-12-06T09:10:11.374Z,1008.07
2018-12-06T09:11:11.360Z,1008.03
2018-12-06T09:12:11.358Z,1008.05
2018-12-06T09:13:11.338Z,1007.99
2018-12-06T09:14:11.328Z,1007.96
2018-12-06T09:15:11.305Z,1007.95
2018-12-06T09:16:11.293Z,1007.97
2018-12-06T09:17:11.289Z,1007.98
2018-12-06T09:18:11.271Z,1007.96
2018-12-06T09:19:11.277Z,1007.97
2018-12-06T09:20:11.248Z,1007.91
2018-12-06T09:21:11.245Z,1007.83
2018-12-06T09:22:11.232Z,1007.76
2018-12-06T09:23:11.214Z,1007.75
2018-12-06T09:24:11.220Z,1007.79
2018-12-06T09:25:11.206Z,1007.82
2018-12-06T09:26:11.181Z,1007.85
2018-12-06T09:27:11.171Z,1007.83
2018-12-06T09:28:11.168Z,1007.73
2018-12-06T09:29:11.174Z,1007.73
2018-12-06T09:30:11.136Z,1007.71
2018-12-06T09:31:11.126Z,1007.72
2018-12-06T09:32:11.113Z,1007.75
2018-12-06T09:33:11.103Z,1007.73
2018-12-06T09:34:11.103Z,1007.71
2018-12-06T09:35:11.102Z,1007.76
2018-12-06T09:36:11.069Z,1007.75
2018-12-06T09:37:11.061Z,1007.72
2018-12-06T09:38:11.050Z,1007.76
2018-12-06T09:39:11.089Z,1007.77
2018-12-06T09:40:11.025Z,1007.83
2018-12-06T09:41:11.013Z,1007.80
2018-12-06T09:42:11.007Z,1007.77
2018-12-06T09:43:11.018Z,1007.76
2018-12-06T09:44:11.001Z,1007.76
2018-12-06T09:45:10.979Z,1007.71
2018-12-06T09:46:10.963Z,1007.72
2018-12-06T09:47:10.945Z,1007.71
2018-12-06T09:48:10.941Z,1007.71
2018-12-06T09:49:10.940Z,1007.68
2018-12-06T09:50:10.919Z,1007.73
2018-12-06T09:51:10.898Z,1007.74
2018-12-06T09:52:10.888Z,1007.84
2018-12-06T09:53:10.877Z,1007.83
2018-12-06T09:54:10.867Z,1007.94
2018-12-06T09:55:10.864Z,1007.96
2018-12-06T09:56:10.841Z,1008.00
2018-12-06T09:57:10.831Z,1007.98
2018-12-06T09:58:10.825Z,1008.01
2018-12-06T09:59:10.815Z,1008.04
2018-12-06T10:00:10.824Z,1008.06
2018-12-06T10:01:10.796Z,1008.12
2018-12-06T10:02:10.772Z,1008.12
2018-12-06T10:03:10.770Z,1008.10
2018-12-06T10:04:10.779Z,1008.15
2018-12-06T10:05:10.756Z,1008.15
2018-12-06T10:06:10.730Z,1008.19
2018-12-06T10:07:10.715Z,1008.21
2018-12-06T10:08:10.721Z,1008.24
2018-12-06T10:09:10.695Z,1008.24
2018-12-06T10:10:10.691Z,1008.22
2018-12-06T10:11:10.675Z,1008.28
2018-12-06T10:12:10.665Z,1008.28
2018-12-06T10:13:10.647Z,1008.23
2018-12-06T10:14:10.663Z,1008.30
2018-12-06T10:15:10.695Z,1008.36
2018-12-06T10:16:10.640Z,1008.34
2018-12-06T10:17:10.603Z,1008.34
2018-12-06T10:18:10.592Z,1008.34
2018-12-06T10:19:10.586Z,1008.36
2018-12-06T10:20:10.591Z,1008.32
2018-12-06T10:21:10.570Z,1008.33
2018-12-06T10:22:10.562Z,1008.31
2018-12-06T10:23:10.534Z,1008.33
2018-12-06T10:24:10.525Z,1008.30
2018-12-06T10:25:10.523Z,1008.31
2018-12-06T10:26:10.518Z,1008.30
2018-12-06T10:27:10.488Z,1008.33
2018-12-06T10:28:10.480Z,1008.28
2018-12-06T10:29:10.473Z,1008.24
2018-12-06T10:30:10.466Z,1008.31
2018-12-06T10:31:10.446Z,1008.33
2018-12-06T10:32:10.440Z,1008.35
2018-12-06T10:33:10.419Z,1008.32
2018-12-06T10:34:10.414Z,1008.38
2018-12-06T10:35:10.414Z,1008.40
2018-12-06T10:36:10.387Z,1008.45
2018-12-06T10:37:10.385Z,1008.42
2018-12-06T10:38:10.367Z,1008.45
2018-12-06T10:39:10.350Z,1008.46
2018-12-06T10:40:10.350Z,1008.42
2018-12-06T10:43:28.056Z,1008.39
2018-12-06T10:44:28.038Z,1008.43
2018-12-06T10:45:28.038Z,1008.43
2018-12-06T10:49:54.940Z,1008.36
2018-12-06T10:50:54.697Z,1008.41
2018-12-06T10:51:54.677Z,1008.41
2018-12-06T10:52:54.663Z,1008.38
2018-12-06T10:53:54.650Z,1008.39
2018-12-06T10:54:54.640Z,1008.43
2018-12-06T10:55:54.642Z,1008.36
2018-12-06T10:56:54.712Z,1008.43
2018-12-06T10:57:54.604Z,1008.44
2018-12-06T10:58:54.606Z,1008.44
2018-12-06T10:59:54.585Z,1008.46
2018-12-06T11:00:57.421Z,1008.41
2018-12-06T11:04:12.263Z,1008.41
2018-12-06T11:05:12.251Z,1008.37
2018-12-06T11:06:12.253Z,1008.38
2018-12-06T11:07:12.229Z,1008.40
2018-12-06T11:08:12.219Z,1008.37
2018-12-06T11:09:12.208Z,1008.34
2018-12-06T11:10:12.196Z,1008.34
2018-12-06T11:11:12.514Z,1008.34
2018-12-06T11:12:12.194Z,1008.32
2018-12-06T11:13:12.184Z,1008.36
2018-12-06T11:14:12.167Z,1008.35
2018-12-06T11:15:12.137Z,1008.38
2018-12-06T11:16:12.146Z,1008.40
2018-12-06T11:17:12.120Z,1008.43
2018-12-06T11:18:12.103Z,1008.40
2018-12-06T11:19:12.107Z,1008.39
2018-12-06T11:20:12.083Z,1008.39
2018-12-06T11:21:12.082Z,1008.41
2018-12-06T11:22:12.062Z,1008.36
2018-12-06T11:23:12.056Z,1008.43
2018-12-06T11:25:42.012Z,1008.33
2018-12-06T11:26:20.760Z,1008.29
2018-12-06T11:27:20.738Z,1008.29
2018-12-06T11:28:20.754Z,1008.19
2018-12-06T11:29:20.719Z,1008.21
2018-12-06T11:30:20.711Z,1008.22
2018-12-06T11:33:30.396Z,1008.06
2018-12-06T11:34:30.387Z,1008.09
2018-12-06T11:35:30.374Z,1008.06
2018-12-06T11:36:30.378Z,1008.09
2018-12-06T11:37:30.354Z,1008.03
2018-12-06T11:40:06.289Z,1008.02
2018-12-06T11:40:38.549Z,1007.97
2018-12-06T11:41:42.974Z,1008.02
2018-12-06T11:42:38.524Z,1007.99
2018-12-06T11:43:38.520Z,1007.93
2018-12-06T11:44:38.517Z,1007.91
2018-12-06T11:45:38.531Z,1007.94
2018-12-06T11:46:38.510Z,1007.90
2018-12-06T11:47:38.470Z,1007.94
2018-12-06T11:48:38.464Z,1007.93
2018-12-06T11:49:38.451Z,1007.93
2018-12-06T11:50:38.453Z,1007.98
2018-12-06T11:51:38.440Z,1007.98
2018-12-06T11:52:38.429Z,1007.98
2018-12-06T11:53:38.401Z,1007.98
2018-12-06T11:54:38.455Z,1008.03
2018-12-06T11:55:38.386Z,1007.98
2018-12-06T11:58:13.343Z,1008.01
2018-12-06T12:01:03.007Z,1007.98
2018-12-06T12:02:09.725Z,1008.00
2018-12-06T12:03:03.980Z,1008.01
2018-12-06T12:04:02.973Z,1008.01
2018-12-06T12:05:02.956Z,1007.99
2018-12-06T12:07:34.434Z,1007.99
2018-12-06T12:08:11.658Z,1008.01
2018-12-06T12:09:11.674Z,1007.99
2018-12-06T12:10:11.659Z,1007.95
2018-12-06T12:11:11.623Z,1008.00
2018-12-06T12:12:11.625Z,1007.98
2018-12-06T12:13:11.599Z,1007.99
2018-12-06T12:14:11.596Z,1008.06
2018-12-06T12:15:11.577Z,1008.05
2018-12-06T12:16:11.570Z,1008.04
2018-12-06T12:17:11.566Z,1008.03
2018-12-06T12:18:11.542Z,1007.99
2018-12-06T12:19:11.534Z,1008.01
2018-12-06T12:20:11.528Z,1008.00
2018-12-06T12:21:11.532Z,1007.97
2018-12-06T12:22:11.522Z,1007.95
2018-12-06T12:23:11.489Z,1007.93
2018-12-06T12:24:11.477Z,1007.89
2018-12-06T12:25:11.466Z,1007.94
2018-12-06T12:26:11.491Z,1007.92
2018-12-06T12:27:11.465Z,1007.91
2018-12-06T12:28:11.507Z,1007.90
2018-12-06T12:29:11.421Z,1007.89
2018-12-06T12:30:11.437Z,1007.88
2018-12-06T12:31:11.404Z,1007.84
2018-12-06T12:32:11.428Z,1007.83
2018-12-06T12:33:11.375Z,1007.83
2018-12-06T12:34:11.365Z,1007.82
2018-12-06T12:35:11.357Z,1007.90
2018-12-06T12:36:11.346Z,1007.90
2018-12-06T12:37:11.344Z,1007.87
2018-12-06T12:38:11.324Z,1007.93
2018-12-06T12:39:11.309Z,1007.92
2018-12-06T12:40:11.300Z,1007.97
2018-12-06T12:41:11.302Z,1007.97
2018-12-06T12:42:11.302Z,1007.98
2018-12-06T12:43:11.278Z,1008.03
2018-12-06T12:44:11.261Z,1008.03
2018-12-06T12:45:11.246Z,1008.06
2018-12-06T12:46:11.236Z,1008.03
2018-12-06T12:47:11.218Z,1008.12
2018-12-06T12:48:11.225Z,1008.09
2018-12-06T12:49:11.215Z,1008.07
2018-12-06T12:50:11.186Z,1008.04
2018-12-06T12:51:11.183Z,1008.03
2018-12-06T12:52:11.169Z,1007.99
2018-12-06T12:53:11.172Z,1008.05
2018-12-06T12:56:44.077Z,1008.05
2018-12-06T12:57:28.833Z,1007.97
2018-12-06T12:58:28.812Z,1008.00
2018-12-06T12:59:28.798Z,1007.97
2018-12-06T13:00:28.801Z,1007.93
2018-12-06T13:01:29.572Z,1007.91
2018-12-06T13:03:37.481Z,1007.95
2018-12-06T13:04:37.462Z,1007.96
2018-12-06T13:05:37.470Z,1008.03
2018-12-06T13:06:37.443Z,1008.03
2018-12-06T13:07:37.449Z,1008.08
2018-12-06T13:08:37.450Z,1008.09
2018-12-06T13:09:37.405Z,1008.06
2018-12-06T13:10:37.408Z,1008.02
2018-12-06T13:13:55.060Z,1008.03
2018-12-06T13:16:24.795Z,1008.03
2018-12-06T13:17:03.515Z,1008.06
2018-12-06T13:18:03.514Z,1008.08
2018-12-06T13:19:03.505Z,1008.13
2018-12-06T13:21:12.448Z,1008.20
2018-12-06T13:22:12.198Z,1008.16
2018-12-06T13:23:12.212Z,1008.19
2018-12-06T13:24:12.180Z,1008.15
2018-12-06T13:25:12.189Z,1008.18
2018-12-06T13:26:12.158Z,1008.13
2018-12-06T13:27:12.156Z,1008.13
2018-12-06T13:28:12.147Z,1008.11
2018-12-06T13:29:12.136Z,1008.09
2018-12-06T13:32:28.555Z,1008.11
2018-12-06T13:33:28.808Z,1008.07
2018-12-06T13:35:51.491Z,1008.11
2018-12-06T13:36:36.736Z,1008.10
2018-12-06T13:41:22.348Z,1008.27
2018-12-06T14:39:08.856Z,1008.36
2018-12-06T14:39:52.590Z,1008.25
2018-12-06T14:40:52.580Z,1008.27
2018-12-06T14:41:52.572Z,1008.33
2018-12-06T14:42:52.573Z,1008.29
2018-12-06T14:43:41.712Z,1008.33
2018-12-06T14:44:41.711Z,1008.34
2018-12-06T14:45:41.673Z,1008.36
2018-12-06T14:46:41.663Z,1008.41
2018-12-06T14:47:41.650Z,1008.44
2018-12-06T14:48:41.643Z,1008.47
2018-12-06T14:52:31.854Z,1008.46
2018-12-06T14:52:59.043Z,1008.46
2018-12-06T14:53:59.042Z,1008.48
2018-12-06T14:54:59.031Z,1008.46
2018-12-06T14:55:59.029Z,1008.47
2018-12-06T14:59:16.712Z,1008.53
2018-12-06T15:00:16.681Z,1008.56
2018-12-06T15:01:16.676Z,1008.58
2018-12-06T15:02:16.664Z,1008.56
2018-12-06T15:05:34.339Z,1008.59
2018-12-06T15:06:37.537Z,1008.65
2018-12-06T15:09:19.032Z,1008.66
2018-12-06T15:09:42.801Z,1008.69
2018-12-06T15:10:42.774Z,1008.71
2018-12-06T15:11:42.764Z,1008.67
2018-12-06T15:12:42.749Z,1008.68
2018-12-06T15:13:42.740Z,1008.65
2018-12-06T15:14:42.747Z,1008.68
2018-12-06T15:15:42.725Z,1008.69
2018-12-06T15:16:42.709Z,1008.69
2018-12-06T15:17:42.699Z,1008.66
2018-12-06T15:18:42.687Z,1008.68
2018-12-06T15:19:42.684Z,1008.61
2018-12-06T15:20:42.661Z,1008.65
2018-12-06T15:21:42.664Z,1008.64
2018-12-06T15:25:29.611Z,1008.60
2018-12-06T15:26:00.346Z,1008.63
2018-12-06T15:27:00.338Z,1008.66
2018-12-06T15:28:00.322Z,1008.66
2018-12-06T15:29:00.321Z,1008.64
2018-12-06T15:30:00.317Z,1008.61
2018-12-06T15:31:00.291Z,1008.65
2018-12-06T15:32:00.288Z,1008.66
2018-12-06T15:33:00.272Z,1008.61
2018-12-06T15:34:00.276Z,1008.61
2018-12-06T15:35:00.315Z,1008.63
2018-12-06T15:36:00.234Z,1008.62
2018-12-06T15:37:00.227Z,1008.60
2018-12-06T15:38:00.214Z,1008.57
2018-12-06T15:40:30.662Z,1008.58
